Terminal Aerodrome Forecast
Issued by NWS Bismarck, ND

Home | Current Version | Previous Version | Graphics & Text | Print | Product List | Glossary On
Versions: 1 2 3 4 5 6 7 8 9 10 11 12 13 14 15 16 17 18 19
000
FTUS43 KBIS 280527
TAFBIS
TAF
KBIS 280527Z 2806/2906 28004KT P6SM SKC
     FM281300 30012KT P6SM FEW060
     FM281800 31020G32KT P6SM FEW070 SCT110
     FM282100 32020G30KT P6SM SCT070 BKN100
     FM290200 34013KT P6SM FEW060 SCT130
     FM290400 33008KT P6SM FEW050 SCT150=

USA.gov is the U.S. government's official web portal to all federal, state and local government web resources and services.